Time;durP1;ratioP1;P1;durP2;ratioP2;P2;SDS_P1;SDS_P2;PMS_P1;PMS_P2;Temp;Humidity;BMP_temperature;BMP_pressure;BME280_temperature;BME280_humidity;BME280_pressure;Samples;Min_cycle;Max_cycle;Signal;HPM_P1;HPM_P2
2022/02/17 00:03:22;;;;;;;2.30;1.17;;;;;;;11.40;88.32;97630.52;2861577;83;21006;-68
2022/02/17 00:07:24;;;;;;;3.72;1.40;;;;;;;11.19;88.92;97616.77;2810997;84;21019;-68
2022/02/17 00:11:25;;;;;;;3.60;1.70;;;;;;;11.08;89.52;97608.81;2884019;81;21027;-69
2022/02/17 00:15:29;;;;;;;2.42;1.47;;;;;;;11.01;89.82;97615.42;2903402;81;21522;-69
2022/02/17 00:19:30;;;;;;;1.12;1.02;;;;;;;10.92;89.74;97585.49;2898816;82;21062;-70
2022/02/17 00:23:32;;;;;;;1.40;1.30;;;;;;;10.92;89.63;97565.55;2900995;81;21071;-69
2022/02/17 00:27:34;;;;;;;4.95;1.02;;;;;;;10.85;89.29;97554.05;2838152;82;21040;-68
2022/02/17 00:31:35;;;;;;;3.37;1.02;;;;;;;10.93;88.73;97543.25;2909976;82;20966;-69
2022/02/17 00:35:37;;;;;;;0.93;0.57;;;;;;;10.96;88.22;97545.52;2880919;82;21310;-68
2022/02/17 00:39:39;;;;;;;2.05;1.15;;;;;;;11.02;87.72;97540.45;2867532;82;21051;-70
2022/02/17 00:43:40;;;;;;;0.60;0.60;;;;;;;11.05;86.79;97542.71;2851316;83;21011;-68
2022/02/17 00:47:42;;;;;;;0.20;0.20;;;;;;;11.13;86.13;97534.55;2851035;83;21015;-68
2022/02/17 00:51:44;;;;;;;1.12;0.78;;;;;;;11.21;85.12;97538.89;2864829;82;21027;-68
2022/02/17 00:55:46;;;;;;;0.33;0.20;;;;;;;11.31;85.68;97523.89;2851450;83;21059;-69
2022/02/17 00:59:48;;;;;;;0.85;0.40;;;;;;;11.34;85.52;97507.03;2851538;83;21248;-69
2022/02/17 01:03:50;;;;;;;1.30;0.62;;;;;;;11.41;85.91;97504.39;2859173;82;21059;-68
2022/02/17 01:07:51;;;;;;;0.98;0.30;;;;;;;11.40;86.51;97488.12;2851019;83;21086;-70
2022/02/17 01:11:53;;;;;;;0.40;0.40;;;;;;;11.47;89.65;97474.31;2851162;83;21066;-68
2022/02/17 01:15:54;;;;;;;0.40;0.35;;;;;;;11.62;90.25;97448.03;2851284;83;20984;-70
2022/02/17 01:19:56;;;;;;;1.07;0.40;;;;;;;11.72;90.35;97429.80;2851504;83;21042;-69
2022/02/17 01:23:58;;;;;;;1.22;0.72;;;;;;;11.82;89.46;97412.92;2851499;83;21374;-69
2022/02/17 01:28:00;;;;;;;0.33;0.30;;;;;;;11.91;88.59;97391.40;2851453;83;21058;-68
2022/02/17 01:32:03;;;;;;;0.30;0.30;;;;;;;11.91;87.71;97395.39;2851012;83;21059;-68
2022/02/17 01:36:08;;;;;;;0.55;0.30;;;;;;;11.98;86.38;97361.07;2851598;82;21027;-70
2022/02/17 01:40:11;;;;;;;0.70;0.62;;;;;;;11.94;84.82;97361.69;2851283;83;21035;-69
2022/02/17 01:44:13;;;;;;;0.20;0.10;;;;;;;11.97;84.11;97349.28;2851312;83;21117;-69
2022/02/17 01:48:15;;;;;;;0.72;0.20;;;;;;;12.01;83.62;97343.89;2851316;82;20995;-69
2022/02/17 01:52:16;;;;;;;0.23;0.10;;;;;;;12.09;83.58;97331.67;2851692;83;21047;-69
2022/02/17 01:56:18;;;;;;;0.10;0.10;;;;;;;12.10;83.42;97317.33;2851751;83;21285;-68
2022/02/17 02:00:20;;;;;;;0.10;0.10;;;;;;;12.22;83.82;97323.36;2851531;82;21022;-70
2022/02/17 02:04:22;;;;;;;0.62;0.20;;;;;;;12.30;83.37;97305.79;2851625;83;21065;-70
2022/02/17 02:08:23;;;;;;;0.28;0.17;;;;;;;12.24;83.49;97286.65;2851735;83;21047;-68
2022/02/17 02:12:25;;;;;;;0.20;0.20;;;;;;;12.27;83.60;97268.38;2851393;83;21023;-69
2022/02/17 02:16:27;;;;;;;1.75;0.33;;;;;;;12.37;83.42;97246.60;2851657;82;21031;-68
2022/02/17 02:20:29;;;;;;;0.10;0.10;;;;;;;12.62;82.73;97217.05;2851402;83;21086;-68
2022/02/17 02:24:33;;;;;;;0.30;0.20;;;;;;;12.82;81.86;97207.07;2837251;83;21058;-68
2022/02/17 02:28:35;;;;;;;3.12;0.30;;;;;;;12.99;81.06;97202.05;2814582;84;21027;-68
2022/02/17 02:32:37;;;;;;;0.30;0.10;;;;;;;13.12;80.79;97194.94;2814575;84;21019;-70
2022/02/17 02:36:38;;;;;;;0.30;0.20;;;;;;;13.19;80.04;97185.05;2814588;84;21066;-69
2022/02/17 02:40:41;;;;;;;0.17;0.10;;;;;;;13.30;79.98;97175.50;2814301;84;21063;-69
2022/02/17 02:44:43;;;;;;;0.88;0.35;;;;;;;13.33;79.64;97157.70;2814680;84;21051;-70
2022/02/17 02:48:45;;;;;;;0.55;0.20;;;;;;;13.38;79.03;97143.70;2814318;84;21089;-68
2022/02/17 02:52:47;;;;;;;0.45;0.20;;;;;;;13.42;78.99;97135.55;2827894;81;20999;-70
2022/02/17 02:56:49;;;;;;;0.17;0.17;;;;;;;13.40;78.56;97126.95;2862899;83;21062;-69
2022/02/17 03:00:50;;;;;;;0.20;0.10;;;;;;;13.46;78.66;97132.75;2862542;83;21078;-68
2022/02/17 03:04:52;;;;;;;0.30;0.20;;;;;;;13.43;78.95;97151.36;2862697;83;21015;-70
2022/02/17 03:08:54;;;;;;;0.10;0.10;;;;;;;13.42;78.97;97155.03;2862995;83;20960;-68
2022/02/17 03:12:55;;;;;;;0.70;0.15;;;;;;;13.44;78.60;97129.49;2862602;83;21401;-69
2022/02/17 03:16:57;;;;;;;0.42;0.20;;;;;;;13.47;78.59;97143.73;2862939;82;21003;-68
2022/02/17 03:21:00;;;;;;;0.13;0.13;;;;;;;13.52;78.21;97138.53;2862934;83;21067;-68
2022/02/17 03:25:03;;;;;;;0.20;0.10;;;;;;;13.68;77.80;97138.48;2860838;80;21051;-69
2022/02/17 03:29:05;;;;;;;0.10;0.10;;;;;;;13.87;76.64;97099.73;2900631;81;21031;-68
2022/02/17 03:33:06;;;;;;;0.50;0.20;;;;;;;14.07;75.75;97111.47;2900920;82;21015;-68
2022/02/17 03:37:08;;;;;;;0.10;0.10;;;;;;;14.16;74.54;97128.00;2900697;82;21019;-68
2022/02/17 03:41:09;;;;;;;0.30;0.30;;;;;;;14.23;74.60;97145.30;2900461;82;21023;-69
2022/02/17 03:45:12;;;;;;;0.13;0.10;;;;;;;14.19;74.04;97154.28;2900748;82;21095;-68
2022/02/17 03:49:14;;;;;;;0.10;0.10;;;;;;;14.16;73.95;97143.25;2900478;82;21007;-68
2022/02/17 03:53:16;;;;;;;0.30;0.13;;;;;;;14.20;73.89;97137.20;2900665;82;21043;-68
2022/02/17 03:57:17;;;;;;;2.20;1.22;;;;;;;13.97;71.03;97407.82;2898739;82;20999;-75
2022/02/17 04:01:19;;;;;;;1.00;0.53;;;;;;;10.22;89.63;97408.64;2898508;80;21313;-75
2022/02/17 04:05:20;;;;;;;1.15;0.57;;;;;;;8.87;94.88;97391.53;2898504;82;21523;-76
2022/02/17 04:09:22;;;;;;;5.12;0.40;;;;;;;8.63;97.25;97394.78;2898001;82;21599;-74
2022/02/17 04:13:24;;;;;;;4.87;1.22;;;;;;;8.43;97.60;97354.26;2899455;82;21003;-75
2022/02/17 04:17:25;;;;;;;2.58;0.47;;;;;;;8.43;98.14;97334.39;2900086;82;21536;-76
2022/02/17 04:21:27;;;;;;;1.10;0.72;;;;;;;8.47;97.83;97330.88;2898434;82;21059;-80
2022/02/17 04:25:29;;;;;;;2.33;0.50;;;;;;;8.54;98.47;97312.45;2898024;82;21051;-74
2022/02/17 04:29:30;;;;;;;1.82;0.70;;;;;;;8.47;97.82;97322.12;2898395;82;21052;-79
2022/02/17 04:33:36;;;;;;;4.22;2.35;;;;;;;8.52;98.50;97309.17;2897783;80;21098;-76
2022/02/17 04:37:38;;;;;;;8.50;4.22;;;;;;;8.50;99.79;97333.70;2897178;82;21003;-79
2022/02/17 04:45:55;;;;;;;2.45;1.72;;;;;;;8.60;99.68;97308.23;2895949;82;21497;-80
2022/02/17 04:49:57;;;;;;;1.05;0.68;;;;;;;8.61;99.99;97361.03;2894631;82;21543;-82
2022/02/17 04:53:59;;;;;;;1.62;0.80;;;;;;;8.65;100.00;97359.67;2894488;82;21023;-82
2022/02/17 04:58:00;;;;;;;2.75;1.05;;;;;;;8.75;100.00;97335.53;2894465;82;21019;-78
2022/02/17 05:02:03;;;;;;;7.25;2.80;;;;;;;8.87;100.00;97350.44;2894417;82;21039;-80
2022/02/17 05:06:04;;;;;;;2.27;0.60;;;;;;;8.98;100.00;97395.00;2894877;82;21555;-79
2022/02/17 05:10:07;;;;;;;1.47;0.85;;;;;;;9.02;100.00;97410.05;2895203;82;21086;-80
2022/02/17 05:14:08;;;;;;;2.37;0.95;;;;;;;9.13;100.00;97406.08;2895850;82;21066;-77
2022/02/17 05:18:10;;;;;;;0.47;0.42;;;;;;;9.07;100.00;97390.93;2897119;82;21039;-78
2022/02/17 05:22:11;;;;;;;1.15;1.05;;;;;;;9.06;99.10;97391.94;2895966;82;21047;-78
2022/02/17 05:26:13;;;;;;;3.25;1.57;;;;;;;9.05;97.68;97424.77;2900292;80;21037;-81
2022/02/17 05:30:15;;;;;;;1.85;0.70;;;;;;;9.25;99.20;97424.48;2860698;83;21610;-79
2022/02/17 05:34:20;;;;;;;0.93;0.60;;;;;;;9.12;97.11;97372.09;2860802;83;21031;-81
2022/02/17 05:38:21;;;;;;;2.83;0.70;;;;;;;9.13;96.63;97339.78;2861408;83;21051;-75
2022/02/17 05:42:23;;;;;;;0.30;0.30;;;;;;;9.20;97.91;97389.72;2861804;83;21055;-79
2022/02/17 05:46:25;;;;;;;0.93;0.50;;;;;;;9.28;96.79;97347.18;2861257;83;21062;-77
2022/02/17 05:50:27;;;;;;;2.75;0.62;;;;;;;9.35;96.36;97353.05;2861713;83;21054;-77
2022/02/17 05:54:28;;;;;;;3.25;0.93;;;;;;;9.24;93.92;97348.58;2860633;83;21030;-75
2022/02/17 05:58:30;;;;;;;1.47;0.50;;;;;;;9.36;93.56;97347.56;2861202;83;21023;-74
2022/02/17 06:02:31;;;;;;;0.85;0.62;;;;;;;9.38;91.33;97382.67;2861299;83;21058;-77
2022/02/17 06:06:36;;;;;;;1.20;0.50;;;;;;;9.54;91.50;97421.91;2860503;83;21030;-76
2022/02/17 06:10:36;;;;;;;0.98;0.55;;;;;;;9.43;88.66;97398.00;2860191;83;21063;-76
2022/02/17 06:14:38;;;;;;;2.10;0.40;;;;;;;9.37;88.78;97414.69;2860702;83;21085;-77
2022/02/17 06:18:40;;;;;;;4.80;1.52;;;;;;;9.30;88.95;97450.42;2861844;83;21046;-73
2022/02/17 06:22:49;;;;;;;2.40;1.15;;;;;;;9.19;89.74;97435.02;2861839;83;20999;-74
2022/02/17 06:26:50;;;;;;;3.12;0.65;;;;;;;9.05;90.03;97459.24;2858991;83;21023;-74
2022/02/17 06:30:52;;;;;;;3.90;1.12;;;;;;;8.97;89.89;97395.20;2896029;82;21119;-74
2022/02/17 06:34:53;;;;;;;1.65;1.00;;;;;;;8.92;90.45;97439.98;2895216;82;21015;-76
2022/02/17 06:38:55;;;;;;;2.12;1.42;;;;;;;8.84;90.41;97469.58;2894661;82;21094;-76
2022/02/17 06:42:57;;;;;;;1.77;0.88;;;;;;;8.71;90.73;97472.05;2894346;82;21059;-77
2022/02/17 06:46:58;;;;;;;2.05;0.78;;;;;;;8.65;90.92;97444.47;2864922;82;21061;-77
2022/02/17 06:51:00;;;;;;;2.45;1.07;;;;;;;8.62;91.52;97471.31;2894472;82;22322;-79
2022/02/17 06:55:03;;;;;;;0.60;0.40;;;;;;;8.57;91.55;97481.64;2877508;81;21027;-76
2022/02/17 06:59:05;;;;;;;2.77;1.12;;;;;;;8.61;91.69;97509.41;2844541;82;21559;-73
2022/02/17 07:03:06;;;;;;;3.65;0.82;;;;;;;8.68;90.82;97526.25;2845173;83;21038;-77
2022/02/17 07:07:08;;;;;;;3.52;1.07;;;;;;;8.68;89.88;97501.08;2846405;83;21496;-76
2022/02/17 07:11:09;;;;;;;6.92;0.70;;;;;;;8.73;89.42;97489.09;2846685;83;22163;-74
2022/02/17 07:15:11;;;;;;;1.25;0.50;;;;;;;8.76;88.28;97526.67;2846829;83;21083;-70
2022/02/17 07:19:13;;;;;;;8.40;1.25;;;;;;;8.79;88.25;97506.42;2846912;83;20967;-72
2022/02/17 07:23:15;;;;;;;2.75;1.10;;;;;;;8.92;88.64;97520.84;2847126;83;21086;-73
2022/02/17 07:27:17;;;;;;;1.32;1.00;;;;;;;9.06;87.67;97531.15;2870468;82;21042;-72
2022/02/17 07:31:18;;;;;;;1.47;0.98;;;;;;;9.15;86.81;97537.98;2881240;82;21049;-74
2022/02/17 07:35:20;;;;;;;0.85;0.75;;;;;;;9.19;85.85;97536.61;2881612;82;21447;-73
2022/02/17 07:39:21;;;;;;;3.72;1.17;;;;;;;9.24;85.29;97505.06;2881703;82;21054;-72
2022/02/17 07:43:23;;;;;;;4.87;1.27;;;;;;;9.29;84.52;97515.09;2881810;82;21082;-72
2022/02/17 07:47:24;;;;;;;0.98;0.70;;;;;;;9.43;84.10;97514.74;2882123;82;21427;-74
2022/02/17 07:51:30;;;;;;;0.88;0.70;;;;;;;9.53;83.72;97531.20;2882153;82;21574;-71
2022/02/17 07:55:33;;;;;;;;;;;;;;;9.77;82.78;97544.33;2885257;82;21054;-68
2022/02/17 07:59:34;;;;;;;2.25;1.22;;;;;;;9.83;81.11;97529.80;2882688;82;20171;-72
2022/02/17 08:03:36;;;;;;;1.37;1.10;;;;;;;9.90;79.75;97530.36;2882407;82;21058;-69
2022/02/17 08:07:38;;;;;;;4.17;1.32;;;;;;;9.95;78.69;97531.94;2882981;82;21030;-71
2022/02/17 08:11:39;;;;;;;4.42;1.17;;;;;;;10.06;79.94;97560.66;2882744;82;21642;-71
2022/02/17 08:15:41;;;;;;;7.95;1.62;;;;;;;10.21;78.78;97559.25;2882924;82;21038;-71
2022/02/17 08:19:43;;;;;;;2.52;1.37;;;;;;;10.34;79.12;97585.11;2882991;82;21053;-70
2022/02/17 08:23:45;;;;;;;5.53;1.45;;;;;;;10.34;78.39;97597.07;2882992;82;21066;-68
2022/02/17 08:27:50;;;;;;;2.15;1.15;;;;;;;10.38;77.58;97585.04;2891674;82;20976;-68
2022/02/17 08:31:52;;;;;;;1.80;1.00;;;;;;;10.52;76.69;97577.22;2911029;82;20956;-68
2022/02/17 08:35:54;;;;;;;2.83;1.32;;;;;;;10.81;74.13;97556.80;2910468;82;21074;-69
2022/02/17 08:39:56;;;;;;;2.40;1.30;;;;;;;10.90;73.36;97562.75;2910977;82;21060;-70
2022/02/17 08:43:57;;;;;;;11.08;1.25;;;;;;;10.97;72.55;97575.61;2910825;82;21059;-72
2022/02/17 08:48:00;;;;;;;3.08;1.30;;;;;;;10.97;72.36;97579.07;2910652;82;20980;-68
2022/02/17 08:52:02;;;;;;;2.42;1.82;;;;;;;11.18;70.97;97561.39;2910857;82;21070;-67
2022/02/17 08:56:04;;;;;;;3.27;0.90;;;;;;;11.23;70.92;97580.27;2910955;82;21008;-67
2022/02/17 09:00:08;;;;;;;2.77;1.20;;;;;;;11.25;69.88;97572.06;2911114;82;21023;-69
2022/02/17 09:04:10;;;;;;;3.00;1.20;;;;;;;11.39;71.11;97597.73;2910858;82;21071;-70
2022/02/17 09:08:12;;;;;;;3.85;1.05;;;;;;;11.41;70.61;97565.61;2910792;82;21042;-70
2022/02/17 09:12:14;;;;;;;5.97;2.17;;;;;;;11.37;69.03;97557.19;2911182;82;20999;-68
2022/02/17 09:16:15;;;;;;;2.45;1.45;;;;;;;11.18;68.67;97548.61;2911212;82;21007;-69
2022/02/17 09:20:17;;;;;;;5.37;1.37;;;;;;;10.98;66.25;97516.87;2911183;82;21070;-68
2022/02/17 09:24:19;;;;;;;3.05;1.65;;;;;;;11.08;66.93;97543.64;2910829;82;21035;-68
2022/02/17 09:28:20;;;;;;;3.15;1.37;;;;;;;11.16;66.22;97559.44;2910694;82;21019;-69
2022/02/17 09:32:23;;;;;;;3.30;1.27;;;;;;;11.19;65.62;97568.34;2911183;82;21030;-67
2022/02/17 09:36:25;;;;;;;2.80;1.35;;;;;;;11.18;64.86;97573.36;2911004;82;21003;-67
2022/02/17 09:40:27;;;;;;;3.15;1.30;;;;;;;11.24;65.94;97591.71;2911363;82;21034;-69
2022/02/17 09:44:29;;;;;;;4.42;1.90;;;;;;;11.07;64.26;97567.28;2911332;81;20976;-68
2022/02/17 09:48:32;;;;;;;4.33;2.02;;;;;;;11.27;65.39;97596.14;2910840;82;21265;-68
2022/02/17 09:52:35;;;;;;;5.60;1.02;;;;;;;11.32;63.77;97580.92;2911411;82;21062;-68
2022/02/17 09:56:37;;;;;;;6.87;1.27;;;;;;;11.33;63.59;97559.11;2911043;82;21067;-68
2022/02/17 10:00:39;;;;;;;2.00;0.65;;;;;;;11.35;63.03;97578.36;2911435;82;21019;-68
2022/02/17 10:04:42;;;;;;;2.15;1.35;;;;;;;11.29;63.90;97586.62;2911188;82;21072;-68
2022/02/17 10:08:44;;;;;;;3.85;1.00;;;;;;;11.44;64.90;97619.78;2911037;82;21046;-68
2022/02/17 10:13:04;;;;;;;4.30;1.57;;;;;;;11.45;63.03;97612.11;2910865;82;21051;-67
2022/02/17 10:17:09;;;;;;;1.90;1.12;;;;;;;11.43;61.03;97593.66;2911211;82;21046;-68
2022/02/17 10:21:13;;;;;;;1.85;0.93;;;;;;;11.56;62.16;97632.83;2910875;82;21051;-68
2022/02/17 10:25:18;;;;;;;3.47;1.70;;;;;;;11.75;63.74;97652.28;2910771;82;21047;-67
2022/02/17 10:29:20;;;;;;;7.12;1.65;;;;;;;11.85;64.62;97652.22;2911049;82;20995;-68
2022/02/17 10:33:22;;;;;;;5.92;1.50;;;;;;;11.82;62.14;97590.03;2910777;82;20988;-68
2022/02/17 10:37:50;;;;;;;5.90;1.02;;;;;;;11.80;61.47;97613.38;2911059;82;20952;-68
2022/02/17 10:41:55;;;;;;;5.15;1.52;;;;;;;11.84;61.40;97653.73;2910872;82;21062;-68
2022/02/17 10:46:10;;;;;;;5.17;1.33;;;;;;;11.85;60.69;97636.23;2908511;82;21027;-68
2022/02/17 10:50:20;;;;;;;5.20;1.25;;;;;;;11.83;60.12;97636.95;2911035;81;21039;-67
2022/02/17 10:54:24;;;;;;;3.50;1.12;;;;;;;11.92;61.82;97686.88;2911055;82;21476;-68
2022/02/17 10:58:32;;;;;;;4.37;1.02;;;;;;;11.97;61.92;97662.28;2910731;82;21011;-68
2022/02/17 11:02:34;;;;;;;6.58;1.80;;;;;;;12.11;60.49;97681.33;2910724;82;21059;-70
2022/02/17 11:06:39;;;;;;;5.37;1.20;;;;;;;12.06;60.93;97722.91;2910693;82;20980;-70
2022/02/17 11:10:40;;;;;;;1.52;0.98;;;;;;;12.08;60.15;97704.38;2910494;82;21975;-69
2022/02/17 11:14:45;;;;;;;5.60;1.12;;;;;;;12.00;58.29;97656.59;2910846;82;21076;-69
2022/02/17 11:18:47;;;;;;;6.03;1.52;;;;;;;11.76;58.29;97663.24;2910486;82;21007;-70
2022/02/17 11:22:52;;;;;;;3.08;0.70;;;;;;;11.70;59.71;97716.77;2910367;82;21030;-68
2022/02/17 11:27:07;;;;;;;7.12;2.05;;;;;;;11.63;58.13;97671.98;2910458;81;21016;-68
2022/02/17 11:31:10;;;;;;;4.45;1.35;;;;;;;11.66;59.82;97737.64;2910893;82;21031;-70
2022/02/17 11:35:17;;;;;;;4.10;1.62;;;;;;;11.49;58.76;97686.55;2910630;82;21262;-68
2022/02/17 11:39:19;;;;;;;2.62;1.10;;;;;;;11.50;59.16;97681.53;2905032;82;21531;-71
2022/02/17 11:43:28;;;;;;;3.22;1.30;;;;;;;11.47;58.82;97693.08;2910611;82;21000;-70
2022/02/17 11:47:46;;;;;;;14.93;2.15;;;;;;;11.38;59.65;97743.81;2910336;82;21019;-70
2022/02/17 11:52:05;;;;;;;6.03;1.32;;;;;;;11.40;59.33;97721.01;2879854;81;21324;-68
2022/02/17 11:56:21;;;;;;;4.55;1.57;;;;;;;11.56;60.19;97760.61;2860352;83;21026;-69
2022/02/17 12:00:31;;;;;;;7.50;1.95;;;;;;;11.66;59.14;97767.45;2810664;84;21005;-71
2022/02/17 12:04:32;;;;;;;2.98;1.12;;;;;;;11.75;59.51;97766.79;2905168;80;21031;-68
2022/02/17 12:08:34;;;;;;;12.07;1.62;;;;;;;11.78;59.46;97747.23;2870347;81;20993;-69
2022/02/17 12:12:37;;;;;;;7.92;1.42;;;;;;;11.63;58.54;97761.19;2880788;82;21347;-70
2022/02/17 12:16:41;;;;;;;12.00;1.72;;;;;;;11.54;58.91;97780.48;2932633;80;21036;-71
2022/02/17 12:20:43;;;;;;;7.47;1.85;;;;;;;11.53;60.24;97803.60;2910588;80;21035;-71
2022/02/17 12:24:47;;;;;;;3.58;1.40;;;;;;;11.54;59.68;97776.48;2899217;82;41341;-72
2022/02/17 12:28:49;;;;;;;2.62;1.60;;;;;;;11.44;59.57;97771.50;2888770;82;21031;-70
2022/02/17 12:33:11;;;;;;;8.43;1.52;;;;;;;11.42;60.81;97788.98;2895206;82;21564;-67
2022/02/17 12:37:21;;;;;;;7.30;1.82;;;;;;;11.47;61.62;97796.40;2890017;82;21086;-69
2022/02/17 12:41:22;;;;;;;5.45;1.10;;;;;;;11.58;60.67;97818.48;2870623;81;21007;-69
2022/02/17 12:45:41;;;;;;;3.75;1.10;;;;;;;11.71;62.01;97793.81;2895434;82;21007;-69
2022/02/17 12:49:43;;;;;;;5.92;1.37;;;;;;;11.55;60.86;97813.55;2895423;82;20988;-70
2022/02/17 12:53:52;;;;;;;4.90;1.47;;;;;;;11.65;61.59;97846.50;2895527;82;21019;-68
2022/02/17 12:57:54;;;;;;;2.77;1.20;;;;;;;11.73;60.97;97830.89;2895435;82;21031;-69
2022/02/17 13:01:59;;;;;;;2.40;1.20;;;;;;;11.88;61.36;97807.33;2895782;81;21577;-68
2022/02/17 13:10:17;;;;;;;4.10;1.27;;;;;;;12.24;62.08;97827.66;2895250;82;20976;-69
2022/02/17 13:14:22;;;;;;;3.50;1.37;;;;;;;12.23;60.63;97844.67;2895597;82;20975;-69
2022/02/17 13:18:24;;;;;;;2.77;1.75;;;;;;;12.16;62.57;97865.11;2895894;82;21040;-68
2022/02/17 13:22:39;;;;;;;6.70;1.55;;;;;;;12.07;59.75;97851.95;2895698;82;21003;-69
2022/02/17 13:26:41;;;;;;;5.92;2.45;;;;;;;11.98;61.75;97825.94;2898903;80;21048;-69
2022/02/17 13:30:42;;;;;;;5.20;1.77;;;;;;;11.82;59.84;97884.34;2937052;81;21654;-70
2022/02/17 13:34:44;;;;;;;3.55;1.12;;;;;;;11.87;61.81;97886.41;2937167;81;21043;-68
2022/02/17 13:38:46;;;;;;;5.92;2.77;;;;;;;11.78;60.56;97851.63;2900500;82;20999;-68
2022/02/17 13:43:00;;;;;;;4.62;1.70;;;;;;;11.84;60.73;97907.61;2937173;81;21591;-68
2022/02/17 13:47:03;;;;;;;6.75;2.50;;;;;;;11.88;61.33;97936.00;2900297;82;21027;-69
2022/02/17 13:51:12;;;;;;;2.90;1.42;;;;;;;11.45;62.08;97854.33;2937472;81;20944;-68
2022/02/17 13:55:16;;;;;;;3.72;1.47;;;;;;;11.27;61.04;97884.03;2934949;81;21085;-68
2022/02/17 13:59:26;;;;;;;4.58;1.12;;;;;;;11.10;61.58;97979.24;2920807;81;21078;-68
2022/02/17 14:03:33;;;;;;;12.95;1.50;;;;;;;10.91;61.63;97976.14;2921368;81;20987;-69
2022/02/17 14:07:40;;;;;;;3.65;1.10;;;;;;;11.02;59.39;97978.84;2907198;82;20999;-68
2022/02/17 14:11:41;;;;;;;3.27;1.77;;;;;;;10.98;59.88;97995.66;2921195;81;21081;-68
2022/02/17 14:15:43;;;;;;;4.05;2.27;;;;;;;10.99;62.42;97997.31;2907053;82;21055;-69
2022/02/17 14:19:45;;;;;;;6.05;1.62;;;;;;;10.83;63.08;98032.91;2921199;81;20995;-67
2022/02/17 14:23:48;;;;;;;2.52;1.30;;;;;;;10.23;63.20;98033.31;2906985;82;21035;-69
2022/02/17 14:27:50;;;;;;;6.10;1.65;;;;;;;10.20;62.54;98043.78;2921221;81;21030;-68
2022/02/17 14:31:51;;;;;;;2.27;1.12;;;;;;;9.96;65.10;98052.27;2906529;82;21039;-68
2022/02/17 14:35:53;;;;;;;7.72;1.25;;;;;;;9.93;63.27;98079.67;2921234;81;21078;-68
2022/02/17 14:39:55;;;;;;;3.72;1.02;;;;;;;9.92;60.48;98089.45;2906852;82;21019;-68
2022/02/17 14:43:56;;;;;;;6.65;1.47;;;;;;;10.00;58.99;98072.64;2921072;81;21046;-69
2022/02/17 14:47:58;;;;;;;0.82;0.70;;;;;;;10.00;59.89;98121.28;2891455;82;21011;-68
2022/02/17 14:52:00;;;;;;;3.72;1.75;;;;;;;9.92;58.54;98019.59;2936614;81;21040;-67
2022/02/17 14:56:01;;;;;;;5.15;1.27;;;;;;;9.95;58.03;98132.95;2870092;82;21073;-69
2022/02/17 15:00:07;;;;;;;1.60;1.12;;;;;;;10.02;58.06;98097.19;2902303;81;21047;-69
2022/02/17 15:04:09;;;;;;;5.45;1.77;;;;;;;9.97;59.42;98128.28;2934143;80;21016;-72
2022/02/17 15:08:12;;;;;;;1.80;0.75;;;;;;;9.96;56.94;98103.21;2899377;81;21090;-68
2022/02/17 15:12:13;;;;;;;6.62;1.25;;;;;;;9.85;58.48;98176.98;2930862;80;21051;-71
2022/02/17 15:16:15;;;;;;;2.58;0.60;;;;;;;8.38;74.67;98257.31;2914930;80;21346;-69
2022/02/17 15:20:20;;;;;;;3.27;1.75;;;;;;;7.67;78.15;98220.98;2882784;81;21018;-69
2022/02/17 15:24:21;;;;;;;3.95;2.15;;;;;;;7.47;79.57;98275.45;2908969;80;21026;-69
2022/02/17 15:28:23;;;;;;;4.10;1.20;;;;;;;7.44;79.95;98271.77;2919718;81;21042;-68
2022/02/17 15:32:25;;;;;;;3.12;0.93;;;;;;;7.52;79.15;98290.35;2920460;81;21011;-70
2022/02/17 15:36:27;;;;;;;4.70;1.60;;;;;;;7.46;77.99;98294.92;2906419;82;21019;-68
2022/02/17 15:40:28;;;;;;;6.20;2.12;;;;;;;7.64;77.30;98308.59;2920359;81;21058;-67
2022/02/17 15:44:34;;;;;;;14.18;2.22;;;;;;;7.76;77.25;98336.48;2906305;82;21047;-68
2022/02/17 15:48:36;;;;;;;3.02;1.42;;;;;;;7.76;77.26;98320.59;2917599;81;21086;-68
2022/02/17 15:52:38;;;;;;;4.00;1.87;;;;;;;7.79;75.33;98334.84;2921837;81;21046;-68
2022/02/17 15:56:40;;;;;;;8.08;1.95;;;;;;;7.94;72.74;98331.63;2929422;81;21019;-67
2022/02/17 16:00:42;;;;;;;11.03;2.35;;;;;;;8.01;74.52;98345.88;2928853;81;21459;-68
2022/02/17 16:04:44;;;;;;;5.75;1.95;;;;;;;8.00;72.74;98330.50;2929874;81;21042;-68
2022/02/17 16:08:46;;;;;;;10.88;2.42;;;;;;;8.12;71.45;98339.00;2929109;81;21019;-68
2022/02/17 16:12:49;;;;;;;5.78;2.05;;;;;;;8.17;70.07;98344.31;2920618;81;21019;-67
2022/02/17 16:16:51;;;;;;;9.20;2.33;;;;;;;8.16;69.95;98354.09;2905911;82;21063;-67
2022/02/17 16:20:52;;;;;;;8.13;1.82;;;;;;;8.25;69.75;98352.28;2920468;81;21026;-67
2022/02/17 16:24:54;;;;;;;5.47;2.10;;;;;;;8.19;68.49;98359.55;2911362;81;21030;-67
2022/02/17 16:28:55;;;;;;;8.43;2.22;;;;;;;8.23;69.57;98397.97;2909449;81;21011;-68
2022/02/17 16:32:57;;;;;;;9.68;2.15;;;;;;;8.28;67.67;98389.89;2886269;82;21019;-67
2022/02/17 16:36:59;;;;;;;10.48;2.17;;;;;;;8.34;67.52;98392.89;2876541;82;21326;-68
2022/02/17 16:41:00;;;;;;;6.25;2.22;;;;;;;8.33;66.98;98404.48;2917095;80;21034;-68
2022/02/17 16:45:04;;;;;;;4.17;1.80;;;;;;;8.46;66.91;98415.99;2866274;82;21083;-68
2022/02/17 16:49:06;;;;;;;8.00;2.87;;;;;;;8.46;67.11;98434.55;2892243;81;21101;-70
2022/02/17 16:53:10;;;;;;;12.33;3.20;;;;;;;8.51;65.40;98437.57;2929022;80;21043;-69
2022/02/17 16:57:12;;;;;;;5.45;2.05;;;;;;;8.54;65.54;98433.28;2923034;80;21078;-68
2022/02/17 17:01:14;;;;;;;11.43;4.78;;;;;;;8.54;64.59;98450.50;2925090;80;21077;-69
2022/02/17 17:05:16;;;;;;;5.17;3.00;;;;;;;8.64;62.54;98453.84;2878971;82;21031;-70
2022/02/17 17:09:18;;;;;;;2.52;1.52;;;;;;;8.73;61.86;98535.57;2896994;81;21054;-71
2022/02/17 17:13:20;;;;;;;11.55;2.00;;;;;;;7.67;74.68;98610.01;2909476;81;21031;-69
2022/02/17 17:17:22;;;;;;;1.87;1.00;;;;;;;6.97;77.00;98557.06;2883439;81;21020;-71
2022/02/17 17:21:24;;;;;;;2.20;1.40;;;;;;;6.75;77.83;98556.95;2858547;83;21085;-71
2022/02/17 17:25:26;;;;;;;2.42;1.30;;;;;;;6.73;76.59;98573.45;2858533;82;21140;-71
2022/02/17 17:29:28;;;;;;;3.08;0.98;;;;;;;6.80;76.61;98559.98;2863378;83;21089;-69
2022/02/17 17:33:30;;;;;;;6.85;1.98;;;;;;;6.83;76.51;98565.83;2865641;83;21043;-69
2022/02/17 17:37:31;;;;;;;3.22;1.37;;;;;;;6.80;76.32;98583.77;2869058;81;21007;-71
2022/02/17 17:41:33;;;;;;;3.55;2.10;;;;;;;6.70;75.46;98589.94;2932808;80;20995;-71
2022/02/17 17:45:42;;;;;;;4.58;2.40;;;;;;;6.68;75.60;98591.89;2869785;80;21042;-70
2022/02/17 17:49:38;;;;;;;6.40;2.17;;;;;;;6.71;76.90;98602.17;2918719;80;21042;-69
2022/02/17 17:53:40;;;;;;;4.20;1.77;;;;;;;6.67;75.96;98613.97;2975278;80;21014;-69
2022/02/17 17:57:42;;;;;;;12.75;2.45;;;;;;;6.69;76.26;98617.34;2984249;78;21014;-69
2022/02/17 18:01:44;;;;;;;4.72;2.05;;;;;;;6.80;74.32;98611.52;3006167;78;21050;-69
2022/02/17 18:05:46;;;;;;;11.40;3.12;;;;;;;6.92;72.24;98587.08;2976267;79;21054;-67
2022/02/17 18:09:48;;;;;;;3.67;2.60;;;;;;;7.03;72.26;98619.11;2982664;79;21050;-69
2022/02/17 18:13:51;;;;;;;6.20;3.05;;;;;;;7.12;72.46;98620.91;2998187;78;21038;-68
2022/02/17 18:17:53;;;;;;;6.37;2.42;;;;;;;7.12;71.57;98634.13;2983381;79;21019;-70
2022/02/17 18:21:54;;;;;;;9.65;2.92;;;;;;;7.23;69.25;98648.98;2982894;79;21073;-71
2022/02/17 18:25:56;;;;;;;4.47;2.85;;;;;;;7.31;69.08;98654.88;2983232;78;21027;-69
2022/02/17 18:29:57;;;;;;;6.00;2.27;;;;;;;7.31;67.10;98660.16;2922692;81;21098;-68
2022/02/17 18:34:01;;;;;;;2.30;1.30;;;;;;;7.39;67.67;98679.62;2903818;81;21074;-71
2022/02/17 18:38:03;;;;;;;6.20;2.12;;;;;;;7.40;65.91;98674.67;2844735;81;21052;-70
2022/02/17 18:42:07;;;;;;;2.72;1.55;;;;;;;7.50;64.94;98683.90;2964077;80;21114;-68
2022/02/17 18:46:08;;;;;;;7.47;2.77;;;;;;;7.58;64.64;98687.96;2950208;80;21004;-68
2022/02/17 18:50:13;;;;;;;3.58;1.67;;;;;;;7.60;65.26;98671.95;2930515;80;21662;-67
2022/02/17 18:54:15;;;;;;;6.53;1.87;;;;;;;7.57;66.31;98674.39;2899443;82;21094;-68
2022/02/17 18:58:16;;;;;;;2.67;1.90;;;;;;;7.50;67.44;98694.48;2935895;81;21078;-67
2022/02/17 19:02:19;;;;;;;3.75;2.17;;;;;;;7.36;67.47;98714.78;2936034;81;21051;-67
2022/02/17 19:06:21;;;;;;;5.97;1.80;;;;;;;7.38;67.02;98728.70;2934177;81;20988;-67
2022/02/17 19:10:24;;;;;;;5.30;2.02;;;;;;;7.35;66.07;98731.63;2919640;81;21070;-67
2022/02/17 19:14:25;;;;;;;7.40;3.60;;;;;;;7.37;66.30;98731.00;2919530;81;21075;-67
2022/02/17 19:18:27;;;;;;;4.75;1.55;;;;;;;7.26;67.02;98735.47;2920102;81;21026;-67